KLNC

Lancaster Regional Airport

Lancaster, Texas, USA
METAR KLNC 181955Z AUTO 11003KT 1SM BR OVC001 09/09 A3017 RMK AO2 T00900086
Observed Flight Rules
Dec-18 @ 19:55 UTC (16 minutes ago) Instrument Flight Rules
Wind Visibility Clouds Conditions
110° at 3 knots 1 miles
  • Overcast at 100' AGL
  • Mist
Temperatures Readings
Current 9°C / 48°F
Dewpoint 9°C / 48°F
Humidity 100%
Altimeter 30.17" Hg
Pressure 1022 hPa
Elevation 153
METAR KLNC 181955Z AUTO 11003KT 1SM BR OVC001 09/09 A3017 RMK AO2 T00900086
Observed Flight Rules
Dec-18 @ 19:55 UTC
(16 minutes ago)
LIFR
Wind Visibility
110° at 3 knots 1 miles
Clouds
  • Overcast at 100' AGL
Conditions
  • Mist
Temperature Dewpoint
9°C / 48°F 9°C / 48°F
Humidity Altimeter Pressure
100% 30.17" Hg 1022 hPa